Haleiwa, Hawaii
Current Conditions -  °F | °C
As of 3:58 PM on Saturday 22 Nov 2014 (Local Time) from PHHI Reporting Station
Broken Clouds Broken Clouds  
Wind Chill: 80°   Ceiling: 3300
Heat Index: 82°   Visibility: 10mi
Dew Point: 66°   Wind: 10mph
Humidity: 61%   Direction: 80°E
Pressure: 30.01"   Gusts: NA
Location:  21.58°N, 158.1°W
Report Text: PHHI 230158Z AUTO 08009KT 10SM BKN033 27/19 A3001 RMK AO2 SLP153 T02670187 $
Loading
Personal Weather Stations






























Interactive Weather Map New forecast layout! Learn more

10-Day Weather Forecast

Advertisements
Track Severe Weather on mobile